createdAt,value
2023-04-21T00:02:47.153Z,97.69
2023-04-21T00:07:46.299Z,97.38
2023-04-21T00:12:48.360Z,96.66
2023-04-21T00:17:48.498Z,96.76
2023-04-21T00:22:47.539Z,98.35
2023-04-21T00:27:49.636Z,98.77
2023-04-21T00:32:48.756Z,99.13
2023-04-21T00:37:50.804Z,99.99
2023-04-21T00:42:49.886Z,99.29
2023-04-21T00:47:51.026Z,99.02
2023-04-21T00:52:52.038Z,98.40
2023-04-21T00:57:53.115Z,99.74
2023-04-21T01:02:54.328Z,99.39
2023-04-21T01:07:55.538Z,98.82
2023-04-21T01:12:57.611Z,99.33
2023-04-21T01:17:57.797Z,98.50
2023-04-21T01:22:57.833Z,99.74
2023-04-21T01:27:58.205Z,99.64
2023-04-21T01:32:57.321Z,99.74
2023-04-21T01:37:59.385Z,99.99
2023-04-21T01:42:58.447Z,99.99
2023-04-21T01:47:59.552Z,99.99
2023-04-21T01:53:00.629Z,99.99
2023-04-21T01:58:01.679Z,99.99
2023-04-21T02:03:02.998Z,99.99
2023-04-21T02:08:05.191Z,99.54
2023-04-21T02:13:04.282Z,99.99
2023-04-21T02:18:05.390Z,99.54
2023-04-21T02:23:07.433Z,99.99
2023-04-21T02:28:07.523Z,99.99
2023-04-21T02:33:08.638Z,99.99
2023-04-21T02:38:08.715Z,99.99
2023-04-21T02:43:07.829Z,99.99
2023-04-21T02:48:09.972Z,99.99
2023-04-21T02:53:09.051Z,99.99
2023-04-21T02:58:10.146Z,99.99
2023-04-21T03:03:11.322Z,99.99
2023-04-21T03:08:13.655Z,99.43
2023-04-21T03:13:13.709Z,99.99
2023-04-21T03:18:13.046Z,99.99
2023-04-21T03:23:15.132Z,99.80
2023-04-21T03:28:15.201Z,99.55
2023-04-21T03:33:16.265Z,99.34
2023-04-21T03:38:19.244Z,99.60
2023-04-21T03:43:16.318Z,98.15
2023-04-21T03:48:18.367Z,99.24
2023-04-21T03:53:18.429Z,99.55
2023-04-21T03:59:37.460Z,99.99
2023-04-21T04:03:20.501Z,99.99
2023-04-21T04:08:20.671Z,99.99
2023-04-21T04:13:19.780Z,99.99
2023-04-21T04:18:20.864Z,99.99
2023-04-21T04:23:21.950Z,99.99
2023-04-21T04:28:23.017Z,99.99
2023-04-21T04:33:24.139Z,99.99
2023-04-21T04:38:25.238Z,99.14
2023-04-21T04:43:27.347Z,99.65
2023-04-21T04:48:27.407Z,98.78
2023-04-21T04:53:27.473Z,98.78
2023-04-21T04:58:27.580Z,98.43
2023-04-21T05:03:26.765Z,98.11
2023-04-21T05:08:27.853Z,98.32
2023-04-21T05:13:29.935Z,97.60
2023-04-21T05:18:29.992Z,97.19
2023-04-21T05:23:30.056Z,97.25
2023-04-21T05:28:30.146Z,96.94
2023-04-21T05:33:29.222Z,96.27
2023-04-21T05:38:31.300Z,95.24
2023-04-21T05:43:30.405Z,95.30
2023-04-21T05:48:31.481Z,94.53
2023-04-21T05:53:33.584Z,94.43
2023-04-21T05:58:32.661Z,93.77
2023-04-21T06:03:33.933Z,92.18
2023-04-21T06:08:35.077Z,91.42
2023-04-21T06:13:38.348Z,90.92
2023-04-21T06:18:37.091Z,89.50
2023-04-21T06:23:36.209Z,88.64
2023-04-21T06:28:39.299Z,88.43
2023-04-21T06:33:38.368Z,88.29
2023-04-21T06:38:39.442Z,88.80
2023-04-21T06:43:41.542Z,89.21
2023-04-21T06:48:40.616Z,89.27
2023-04-21T06:53:41.690Z,89.03
2023-04-21T06:58:43.754Z,88.41
2023-04-21T07:03:42.960Z,87.65
2023-04-21T07:08:45.082Z,86.99
2023-04-21T07:13:44.146Z,87.65
2023-04-21T07:18:46.234Z,88.51
2023-04-21T07:23:46.322Z,88.41
2023-04-21T07:28:45.421Z,89.52
2023-04-21T07:33:47.501Z,89.31
2023-04-21T07:38:46.582Z,85.91
2023-04-21T07:43:47.677Z,84.25
2023-04-21T07:48:49.896Z,82.13
2023-04-21T07:53:48.989Z,81.38
2023-04-21T07:58:51.149Z,80.21
2023-04-21T08:03:50.342Z,80.58
2023-04-21T08:08:52.728Z,81.26
2023-04-21T08:13:51.784Z,80.27
2023-04-21T08:18:52.818Z,79.72
2023-04-21T08:23:54.016Z,81.66
2023-04-21T08:28:55.226Z,82.23
2023-04-21T08:34:01.958Z,80.56
2023-04-21T08:38:56.332Z,79.91
2023-04-21T08:43:57.439Z,79.06
2023-04-21T08:48:58.516Z,77.64
2023-04-21T08:54:00.619Z,77.81
2023-04-21T08:59:00.017Z,78.17
2023-04-21T09:04:01.392Z,77.63
2023-04-21T09:09:02.599Z,76.37
2023-04-21T09:14:03.671Z,75.70
2023-04-21T09:19:05.819Z,73.12
2023-04-21T09:24:05.908Z,75.12
2023-04-21T09:29:05.961Z,70.79
2023-04-21T09:34:07.125Z,70.15
2023-04-21T09:44:06.161Z,68.90
2023-04-21T09:49:07.282Z,68.40
2023-04-21T09:54:15.632Z,69.07
2023-04-21T09:59:08.288Z,65.75
2023-04-21T10:04:10.447Z,66.62
2023-04-21T10:09:09.508Z,66.07
2023-04-21T10:14:10.898Z,65.67
2023-04-21T10:19:12.033Z,68.81
2023-04-21T10:24:13.129Z,58.36
2023-04-21T10:29:14.219Z,58.74
2023-04-21T10:34:15.315Z,62.08
2023-04-21T10:39:16.420Z,62.65
2023-04-21T10:44:18.821Z,65.22
2023-04-21T10:49:19.055Z,59.08
2023-04-21T10:54:18.492Z,55.31
2023-04-21T10:59:17.673Z,59.17
2023-04-21T11:04:19.328Z,60.33
2023-04-21T11:09:19.829Z,60.03
2023-04-21T11:14:19.305Z,59.95
2023-04-21T11:19:19.516Z,58.14
2023-04-21T11:24:19.724Z,58.56
2023-04-21T11:29:19.897Z,58.94
2023-04-21T11:34:20.210Z,56.90
2023-04-21T11:39:21.306Z,58.21
2023-04-21T11:44:19.957Z,59.48
2023-04-21T11:49:20.022Z,56.51
2023-04-21T11:54:19.409Z,55.66
2023-04-21T11:59:20.518Z,57.04
2023-04-21T12:04:25.595Z,56.29
2023-04-21T12:09:23.726Z,55.68
2023-04-21T12:14:23.833Z,56.36
2023-04-21T12:19:24.019Z,57.67
2023-04-21T12:24:23.137Z,56.03
2023-04-21T12:29:25.236Z,57.64
2023-04-21T12:34:24.315Z,57.77
2023-04-21T12:39:25.393Z,55.98
2023-04-21T12:44:27.490Z,52.17
2023-04-21T12:49:27.806Z,48.73
2023-04-21T12:54:26.917Z,45.80
2023-04-21T12:59:28.392Z,49.84
2023-04-21T13:04:27.988Z,44.30
2023-04-21T13:09:27.229Z,46.12
2023-04-21T13:14:29.300Z,42.90
2023-04-21T13:19:28.576Z,44.30
2023-04-21T13:24:29.828Z,42.24
2023-04-21T13:29:32.144Z,42.03
2023-04-21T13:34:31.556Z,42.63
2023-04-21T13:39:33.091Z,43.88
2023-04-21T13:44:32.287Z,44.18
2023-04-21T13:49:34.719Z,45.10
2023-04-21T13:54:34.216Z,43.68
2023-04-21T13:59:33.662Z,46.72
2023-04-21T14:04:34.126Z,44.75
2023-04-21T14:09:34.581Z,44.00
2023-04-21T14:19:35.219Z,46.11
2023-04-21T14:24:34.473Z,44.48
2023-04-21T14:29:35.950Z,44.16
2023-04-21T14:34:36.154Z,46.29
2023-04-21T14:39:35.596Z,43.74
2023-04-21T14:44:35.901Z,44.54
2023-04-21T14:49:35.317Z,42.35
2023-04-21T14:54:34.619Z,44.16
2023-04-21T14:59:36.214Z,42.44
2023-04-21T15:04:35.810Z,42.47
2023-04-21T15:09:37.475Z,44.68
2023-04-21T15:14:36.766Z,43.20
2023-04-21T15:19:38.823Z,43.38
2023-04-21T15:24:37.908Z,43.28
2023-04-21T15:29:38.958Z,42.58
2023-04-21T15:34:42.023Z,44.43
2023-04-21T15:39:42.124Z,43.62
2023-04-21T15:44:42.187Z,42.41
2023-04-21T15:49:41.308Z,42.92
2023-04-21T15:54:42.397Z,43.82
2023-04-21T15:59:44.492Z,44.23
2023-04-21T16:04:42.993Z,42.30
2023-04-21T16:09:45.839Z,44.43
2023-04-21T16:14:55.674Z,44.02
2023-04-21T16:19:45.822Z,46.15
2023-04-21T16:24:48.942Z,54.86
2023-04-21T16:29:49.039Z,51.73
2023-04-21T16:34:49.129Z,50.96
2023-04-21T16:39:48.275Z,54.28
2023-04-21T16:44:49.305Z,62.70
2023-04-21T16:49:51.388Z,62.96
2023-04-21T16:54:50.498Z,62.32
2023-04-21T16:59:52.601Z,60.41
2023-04-21T17:04:51.694Z,61.88
2023-04-21T17:09:52.821Z,67.09
2023-04-21T17:14:53.925Z,70.29
2023-04-21T17:19:56.014Z,69.55
2023-04-21T17:24:55.443Z,68.80
2023-04-21T17:29:54.803Z,69.45
2023-04-21T17:34:55.912Z,70.36
2023-04-21T17:39:57.742Z,70.15
2023-04-21T17:44:57.661Z,69.27
2023-04-21T17:49:59.766Z,71.94
2023-04-21T17:54:58.858Z,73.90
2023-04-21T18:00:01.192Z,73.80
2023-04-21T18:05:00.439Z,74.74
2023-04-21T18:10:01.828Z,75.45
2023-04-21T18:15:03.888Z,73.83
2023-04-21T18:20:03.088Z,73.93
2023-04-21T18:25:04.141Z,76.20
2023-04-21T18:30:06.198Z,75.82
2023-04-21T18:35:05.604Z,76.33
2023-04-21T18:40:06.942Z,77.04
2023-04-21T18:45:08.379Z,76.23
2023-04-21T18:50:07.735Z,77.99
2023-04-21T18:55:10.030Z,76.78
2023-04-21T19:00:09.234Z,77.42
2023-04-21T19:05:11.527Z,77.72
2023-04-21T19:10:11.820Z,78.23
2023-04-21T19:15:10.948Z,78.03
2023-04-21T19:20:12.437Z,78.78
2023-04-21T19:25:13.693Z,79.08
2023-04-21T19:30:13.182Z,79.90
2023-04-21T19:35:12.827Z,80.03
2023-04-21T19:40:13.306Z,80.24
2023-04-21T19:45:12.750Z,79.36
2023-04-21T19:50:14.063Z,79.16
2023-04-21T19:55:15.344Z,79.25
2023-04-21T20:00:16.778Z,78.38
2023-04-21T20:05:15.960Z,78.58
2023-04-21T20:10:17.222Z,77.87
2023-04-21T20:15:19.274Z,79.60
2023-04-21T20:20:19.483Z,76.28
2023-04-21T20:25:18.595Z,77.91
2023-04-21T20:30:20.040Z,78.76
2023-04-21T20:35:21.360Z,79.10
2023-04-21T20:40:20.690Z,75.33
2023-04-21T20:45:21.849Z,72.72
2023-04-21T20:50:23.019Z,71.47
2023-04-21T20:55:24.096Z,68.31
2023-04-21T21:00:25.248Z,67.53
2023-04-21T21:05:27.333Z,64.83
2023-04-21T21:10:27.406Z,64.69
2023-04-21T21:15:26.480Z,62.82
2023-04-21T21:20:27.647Z,66.46
2023-04-21T21:25:29.858Z,63.64
2023-04-21T21:30:29.899Z,59.48
2023-04-21T21:35:28.981Z,58.85
2023-04-21T21:40:32.074Z,60.74
2023-04-21T21:45:31.296Z,60.63
2023-04-21T21:50:32.695Z,59.31
2023-04-21T21:55:33.777Z,59.79
2023-04-21T22:00:36.859Z,58.67
2023-04-21T22:05:36.503Z,58.14
2023-04-21T22:10:38.588Z,58.45
2023-04-21T22:15:37.196Z,57.50
2023-04-21T22:20:36.388Z,59.94
2023-04-21T22:25:37.543Z,57.91
2023-04-21T22:30:38.676Z,58.22
2023-04-21T22:35:38.910Z,57.53
2023-04-21T22:40:40.973Z,61.01
2023-04-21T22:45:40.054Z,60.50
2023-04-21T22:50:41.091Z,61.34
2023-04-21T22:55:43.183Z,61.44
2023-04-21T23:00:42.287Z,60.97
2023-04-21T23:05:43.520Z,61.14
2023-04-21T23:10:44.705Z,60.46
2023-04-21T23:15:45.792Z,60.66
2023-04-21T23:20:47.903Z,62.21
2023-04-21T23:25:47.085Z,62.11
2023-04-21T23:30:48.280Z,62.85
2023-04-21T23:35:53.332Z,62.24
2023-04-21T23:40:50.360Z,62.75
2023-04-21T23:45:52.628Z,62.27
2023-04-21T23:50:51.671Z,60.92
2023-04-21T23:55:53.731Z,60.49
